createdAt,value
2019-05-13T00:00:44.673Z,95.93
2019-05-13T00:03:13.867Z,78.67
2019-05-13T00:05:44.560Z,90.13
2019-05-13T00:08:14.127Z,96.13
2019-05-13T00:10:44.447Z,94.83
2019-05-13T00:13:14.744Z,90.07
2019-05-13T00:15:44.468Z,90.77
2019-05-13T00:18:14.471Z,90.93
2019-05-13T00:20:44.546Z,98.83
2019-05-13T00:23:14.364Z,85.10
2019-05-13T00:25:44.449Z,92.67
2019-05-13T00:28:14.396Z,82.47
2019-05-13T00:30:44.561Z,87.43
2019-05-13T00:33:14.213Z,87.73
2019-05-13T00:35:44.215Z,84.43
2019-05-13T00:38:14.277Z,78.20
2019-05-13T00:40:44.283Z,76.70
2019-05-13T00:43:14.336Z,80.50
2019-05-13T00:45:44.774Z,82.27
2019-05-13T00:48:14.399Z,78.67
2019-05-13T00:50:44.302Z,75.83
2019-05-13T00:53:14.187Z,81.27
2019-05-13T00:55:44.582Z,83.00
2019-05-13T00:58:14.200Z,81.53
2019-05-13T01:00:44.532Z,84.37
2019-05-13T01:03:14.445Z,92.50
2019-05-13T01:05:44.425Z,88.23
2019-05-13T01:08:14.497Z,87.30
2019-05-13T01:10:45.132Z,89.57
2019-05-13T01:13:14.276Z,70.83
2019-05-13T01:15:44.397Z,69.63
2019-05-13T01:18:14.326Z,70.50
2019-05-13T01:20:43.862Z,56.33
2019-05-13T01:23:14.224Z,52.37
2019-05-13T01:25:44.439Z,50.03
2019-05-13T01:28:13.812Z,44.90
2019-05-13T01:30:43.984Z,43.03
2019-05-13T01:33:14.492Z,32.57
2019-05-13T01:35:44.497Z,24.13
2019-05-13T01:38:13.776Z,20.70
2019-05-13T01:40:43.975Z,20.37
2019-05-13T01:43:14.426Z,19.77
2019-05-13T01:45:44.133Z,22.70
2019-05-13T01:48:14.222Z,22.30
2019-05-13T01:50:44.524Z,21.93
2019-05-13T01:53:14.519Z,26.83
2019-05-13T01:55:44.271Z,24.23
2019-05-13T01:58:14.602Z,26.13
2019-05-13T02:03:19.315Z,23.50
2019-05-13T02:05:48.175Z,25.83
2019-05-13T02:08:17.078Z,26.93
2019-05-13T02:10:58.668Z,26.17
2019-05-13T02:13:27.527Z,22.60
2019-05-13T02:15:56.395Z,21.33
2019-05-13T02:18:25.341Z,18.90
2019-05-13T02:20:55.360Z,20.07
2019-05-13T02:23:24.684Z,24.80
2019-05-13T02:25:54.384Z,22.70
2019-05-13T02:28:25.065Z,22.47
2019-05-13T02:30:55.973Z,17.67
2019-05-13T02:33:24.816Z,17.20
2019-05-13T02:35:54.077Z,17.40
2019-05-13T02:38:28.929Z,21.97
2019-05-13T02:40:53.953Z,19.60
2019-05-13T02:43:23.833Z,19.10
2019-05-13T02:45:54.197Z,17.90
2019-05-13T02:48:24.348Z,20.07
2019-05-13T02:50:54.142Z,18.23
2019-05-13T02:53:24.347Z,20.93
2019-05-13T02:55:53.971Z,21.00
2019-05-13T02:58:25.118Z,25.03
2019-05-13T03:00:54.205Z,20.20
2019-05-13T03:03:23.953Z,21.00
2019-05-13T03:05:53.949Z,21.20
2019-05-13T03:08:39.152Z,22.10
2019-05-13T03:10:54.081Z,22.23
2019-05-13T03:13:24.011Z,22.60
2019-05-13T03:16:13.290Z,20.80
2019-05-13T03:18:43.552Z,20.60
2019-05-13T03:21:13.166Z,21.87
2019-05-13T03:23:44.022Z,22.63
2019-05-13T03:26:13.351Z,21.87
2019-05-13T03:28:43.519Z,17.33
2019-05-13T03:31:17.071Z,22.70
2019-05-13T03:33:46.273Z,15.57
2019-05-13T03:36:16.178Z,17.33
2019-05-13T03:39:01.834Z,16.90
2019-05-13T03:41:17.697Z,15.60
2019-05-13T03:43:47.685Z,16.07
2019-05-13T03:46:22.440Z,15.67
2019-05-13T03:48:53.051Z,17.23
2019-05-13T03:51:23.261Z,15.47
2019-05-13T03:53:53.411Z,19.27
2019-05-13T03:56:23.910Z,19.60
2019-05-13T03:58:54.029Z,16.03
2019-05-13T04:01:23.417Z,18.20
2019-05-13T04:03:52.919Z,16.83
2019-05-13T04:06:23.834Z,17.40
2019-05-13T04:08:54.136Z,18.33
2019-05-13T04:11:23.796Z,16.97
2019-05-13T04:13:53.218Z,15.17
2019-05-13T04:16:23.745Z,15.63
2019-05-13T04:18:53.695Z,15.13
2019-05-13T04:21:23.004Z,14.60
2019-05-13T04:23:53.230Z,14.03
2019-05-13T04:26:23.516Z,13.37
2019-05-13T04:28:53.656Z,13.13
2019-05-13T04:31:22.932Z,12.93
2019-05-13T04:33:53.385Z,12.50
2019-05-13T04:36:23.833Z,10.10
2019-05-13T04:38:53.213Z,8.70
2019-05-13T04:41:23.162Z,8.20
2019-05-13T04:43:53.952Z,10.90
2019-05-13T04:46:23.623Z,8.20
2019-05-13T04:48:53.227Z,7.97
2019-05-13T04:51:22.944Z,7.60
2019-05-13T04:53:56.634Z,7.17
2019-05-13T04:56:22.621Z,7.53
2019-05-13T04:58:52.834Z,10.23
2019-05-13T05:01:59.425Z,7.37
2019-05-13T05:04:33.944Z,7.03
2019-05-13T05:07:03.349Z,7.70
2019-05-13T05:10:15.480Z,6.50
2019-05-13T05:12:23.943Z,6.87
2019-05-13T05:15:04.804Z,6.73
2019-05-13T05:17:52.967Z,19.57
2019-05-13T05:20:33.919Z,6.80
2019-05-13T05:23:21.462Z,7.07
2019-05-13T05:26:02.241Z,8.13
2019-05-13T05:28:34.861Z,8.40
2019-05-13T05:31:25.088Z,9.60
2019-05-13T05:34:06.550Z,8.53
2019-05-13T05:36:52.727Z,9.77
2019-05-13T05:39:24.573Z,10.80
2019-05-13T05:41:56.235Z,11.43
2019-05-13T05:44:32.441Z,16.07
2019-05-13T05:47:04.209Z,12.57
2019-05-13T05:49:33.176Z,13.37
2019-05-13T05:52:04.906Z,16.33
2019-05-13T05:54:39.204Z,13.70
2019-05-13T05:57:08.904Z,14.57
2019-05-13T05:59:43.419Z,13.50
2019-05-13T06:02:12.400Z,11.40
2019-05-13T06:04:43.006Z,12.57
2019-05-13T06:07:13.002Z,13.00
2019-05-13T06:09:42.427Z,11.50
2019-05-13T06:12:12.596Z,12.10
2019-05-13T06:14:42.449Z,13.53
2019-05-13T06:17:11.631Z,14.97
2019-05-13T06:19:41.826Z,13.17
2019-05-13T06:22:12.250Z,12.20
2019-05-13T06:24:42.308Z,12.00
2019-05-13T06:27:11.809Z,11.70
2019-05-13T06:29:42.364Z,12.17
2019-05-13T06:32:31.453Z,11.67
2019-05-13T06:35:02.178Z,12.40
2019-05-13T06:37:32.146Z,11.97
2019-05-13T06:40:02.031Z,11.80
2019-05-13T06:42:32.499Z,12.73
2019-05-13T06:45:02.023Z,12.40
2019-05-13T06:47:32.517Z,13.73
2019-05-13T06:50:03.254Z,15.33
2019-05-13T06:52:32.532Z,17.93
2019-05-13T06:55:02.739Z,18.73
2019-05-13T06:57:32.323Z,18.43
2019-05-13T07:00:01.860Z,20.00
2019-05-13T07:02:32.010Z,20.47
2019-05-13T07:05:02.331Z,21.80
2019-05-13T07:07:31.913Z,22.83
2019-05-13T07:10:02.567Z,22.77
2019-05-13T07:12:31.775Z,23.30
2019-05-13T07:15:02.427Z,26.67
2019-05-13T07:17:32.365Z,28.13
2019-05-13T07:20:02.361Z,27.90
2019-05-13T07:22:32.255Z,27.03
2019-05-13T07:25:02.561Z,25.97
2019-05-13T07:27:31.935Z,28.40
2019-05-13T07:30:02.222Z,25.80
2019-05-13T07:32:31.631Z,25.33
2019-05-13T07:35:04.006Z,24.50
2019-05-13T07:37:31.948Z,26.23
2019-05-13T07:40:02.542Z,27.47
2019-05-13T07:42:31.687Z,24.93
2019-05-13T07:45:01.525Z,28.17
2019-05-13T07:47:31.462Z,26.10
2019-05-13T07:50:02.537Z,22.83
2019-05-13T07:52:31.922Z,22.50
2019-05-13T07:55:01.761Z,22.97
2019-05-13T07:57:31.918Z,25.40
2019-05-13T08:00:02.074Z,23.93
2019-05-13T08:02:31.998Z,22.57
2019-05-13T08:05:02.379Z,24.33
2019-05-13T08:07:31.691Z,24.07
2019-05-13T08:10:03.402Z,23.80
2019-05-13T08:12:31.883Z,23.03
2019-05-13T08:15:03.237Z,23.43
2019-05-13T08:17:32.726Z,23.57
2019-05-13T08:20:02.861Z,26.62
2019-05-13T08:22:32.223Z,25.00
2019-05-13T08:25:03.051Z,25.13
2019-05-13T08:27:35.173Z,26.27
2019-05-13T08:30:02.298Z,25.33
2019-05-13T08:32:31.563Z,24.80
2019-05-13T08:35:06.521Z,24.17
2019-05-13T08:37:32.080Z,23.50
2019-05-13T08:40:01.706Z,21.23
2019-05-13T08:42:32.244Z,20.03
2019-05-13T08:45:02.007Z,21.73
2019-05-13T08:47:31.520Z,19.77
2019-05-13T08:50:04.021Z,20.20
2019-05-13T08:52:31.458Z,19.20
2019-05-13T08:55:01.539Z,18.20
2019-05-13T08:57:31.568Z,17.17
2019-05-13T09:00:04.728Z,18.70
2019-05-13T09:02:31.440Z,19.10
2019-05-13T09:05:02.385Z,16.90
2019-05-13T09:07:32.065Z,17.00
2019-05-13T09:10:01.763Z,18.77
2019-05-13T09:12:35.732Z,18.10
2019-05-13T09:15:03.247Z,17.00
2019-05-13T09:17:32.165Z,17.73
2019-05-13T09:20:02.847Z,17.40
2019-05-13T09:22:31.910Z,16.33
2019-05-13T09:25:02.126Z,16.60
2019-05-13T09:27:31.856Z,15.30
2019-05-13T09:30:02.670Z,16.77
2019-05-13T09:32:31.873Z,15.33
2019-05-13T09:35:03.049Z,16.93
2019-05-13T09:37:31.797Z,16.03
2019-05-13T09:40:02.337Z,17.60
2019-05-13T09:42:47.521Z,17.77
2019-05-13T09:45:02.377Z,16.37
2019-05-13T09:47:32.212Z,16.43
2019-05-13T09:50:01.189Z,17.30
2019-05-13T09:52:31.910Z,20.93
2019-05-13T09:55:03.111Z,21.50
2019-05-13T09:57:32.144Z,20.27
2019-05-13T10:00:01.931Z,17.00
2019-05-13T10:02:32.076Z,21.73
2019-05-13T10:05:02.264Z,18.60
2019-05-13T10:07:31.945Z,18.17
2019-05-13T10:10:01.871Z,18.60
2019-05-13T10:12:31.919Z,19.37
2019-05-13T10:15:02.164Z,16.77
2019-05-13T10:17:31.921Z,15.20
2019-05-13T10:20:00.983Z,17.43
2019-05-13T10:22:32.003Z,17.93
2019-05-13T10:25:02.508Z,16.43
2019-05-13T10:27:32.448Z,16.73
2019-05-13T10:30:01.879Z,19.93
2019-05-13T10:32:32.389Z,16.13
2019-05-13T10:35:03.226Z,16.00
2019-05-13T10:37:32.688Z,17.10
2019-05-13T10:40:02.258Z,15.37
2019-05-13T10:42:31.652Z,14.43
2019-05-13T10:45:02.533Z,16.67
2019-05-13T10:47:31.078Z,12.23
2019-05-13T10:50:02.859Z,14.13
2019-05-13T10:52:32.269Z,13.07
2019-05-13T10:55:01.966Z,13.30
2019-05-13T10:57:31.908Z,16.73
2019-05-13T11:00:03.267Z,15.60
2019-05-13T11:02:32.734Z,15.80
2019-05-13T11:05:03.239Z,17.77
2019-05-13T11:07:32.402Z,16.67
2019-05-13T11:10:02.334Z,15.80
2019-05-13T11:12:33.506Z,16.77
2019-05-13T11:15:02.596Z,16.10
2019-05-13T11:17:33.308Z,16.33
2019-05-13T11:20:03.464Z,17.60
2019-05-13T11:22:32.830Z,18.10
2019-05-13T11:25:02.672Z,14.40
2019-05-13T11:27:32.361Z,15.53
2019-05-13T11:30:05.428Z,16.40
2019-05-13T11:32:32.151Z,16.83
2019-05-13T11:35:01.780Z,16.73
2019-05-13T11:37:32.062Z,17.77
2019-05-13T11:40:02.738Z,18.47
2019-05-13T11:42:32.796Z,21.13
2019-05-13T11:45:02.037Z,20.40
2019-05-13T11:47:32.252Z,16.27
2019-05-13T11:50:02.343Z,16.70
2019-05-13T11:52:31.720Z,17.93
2019-05-13T11:55:02.549Z,16.20
2019-05-13T11:57:31.565Z,19.30
2019-05-13T12:00:02.666Z,16.77
2019-05-13T12:02:32.647Z,15.57
2019-05-13T12:05:03.745Z,17.43
2019-05-13T12:07:33.101Z,18.70
2019-05-13T12:10:02.737Z,16.60
2019-05-13T12:12:34.365Z,15.70
2019-05-13T12:15:26.390Z,21.00
2019-05-13T12:17:34.139Z,17.80
2019-05-13T12:20:03.554Z,15.97
2019-05-13T12:22:32.470Z,16.83
2019-05-13T12:25:02.181Z,15.17
2019-05-13T12:27:31.754Z,16.63
2019-05-13T12:30:03.018Z,16.87
2019-05-13T12:32:32.333Z,16.10
2019-05-13T12:35:03.623Z,21.37
2019-05-13T12:37:33.437Z,26.10
2019-05-13T12:40:03.365Z,20.60
2019-05-13T12:42:33.867Z,19.07
2019-05-13T12:45:09.871Z,20.37
2019-05-13T12:47:33.708Z,22.03
2019-05-13T12:50:03.473Z,21.03
2019-05-13T12:52:32.748Z,25.63
2019-05-13T12:55:03.255Z,21.97
2019-05-13T12:57:32.596Z,25.13
2019-05-13T13:00:02.604Z,22.47
2019-05-13T13:02:32.621Z,23.53
2019-05-13T13:05:13.350Z,21.53
2019-05-13T13:07:37.474Z,22.50
2019-05-13T13:10:02.921Z,22.93
2019-05-13T13:12:36.064Z,23.00
2019-05-13T13:15:30.554Z,22.80
2019-05-13T13:17:32.839Z,21.77
2019-05-13T13:20:08.852Z,24.33
2019-05-13T13:22:32.354Z,24.43
2019-05-13T13:25:04.889Z,23.70
2019-05-13T13:27:59.941Z,25.07
2019-05-13T13:30:07.862Z,28.00
2019-05-13T13:32:33.286Z,27.43
2019-05-13T13:35:03.742Z,26.43
2019-05-13T13:37:34.820Z,28.50
2019-05-13T13:40:03.699Z,28.83
2019-05-13T13:42:33.195Z,23.77
2019-05-13T14:16:25.038Z,31.17
2019-05-13T14:18:41.917Z,33.23
2019-05-13T14:21:11.094Z,32.03
2019-05-13T14:23:42.389Z,40.63
2019-05-13T14:26:10.811Z,47.73
2019-05-13T14:28:41.914Z,37.33
2019-05-13T14:31:10.263Z,40.37
2019-05-13T14:33:39.111Z,38.47
2019-05-13T14:36:07.969Z,45.87
2019-05-13T14:38:36.981Z,39.80
2019-05-13T14:41:09.122Z,34.03
2019-05-13T14:43:37.441Z,40.30
2019-05-13T14:46:06.371Z,36.83
2019-05-13T14:48:35.189Z,35.43
2019-05-13T14:51:04.359Z,49.10
2019-05-13T14:53:33.305Z,37.33
2019-05-13T14:56:03.077Z,39.03
2019-05-13T14:58:32.760Z,33.77
2019-05-13T15:01:12.480Z,38.67
2019-05-13T15:03:44.454Z,37.63
2019-05-13T15:06:02.972Z,34.47
2019-05-13T15:08:32.821Z,38.83
2019-05-13T15:11:02.215Z,47.00
2019-05-13T15:13:33.048Z,36.43
2019-05-13T15:16:01.869Z,40.07
2019-05-13T15:18:32.711Z,39.73
2019-05-13T15:21:01.859Z,60.63
2019-05-13T15:23:31.670Z,43.43
2019-05-13T15:26:02.231Z,40.63
2019-05-13T15:28:31.861Z,43.47
2019-05-13T15:31:00.971Z,45.00
2019-05-13T15:33:32.277Z,49.20
2019-05-13T15:36:01.688Z,54.40
2019-05-13T15:38:32.039Z,56.70
2019-05-13T15:41:02.018Z,54.63
2019-05-13T15:43:31.923Z,57.60
2019-05-13T15:46:01.771Z,59.57
2019-05-13T15:48:31.684Z,60.20
2019-05-13T15:51:02.054Z,62.90
2019-05-13T15:53:32.043Z,53.70
2019-05-13T15:56:02.659Z,55.40
2019-05-13T15:58:39.435Z,68.27
2019-05-13T16:01:03.153Z,69.37
2019-05-13T16:03:32.256Z,70.63
2019-05-13T16:06:01.640Z,67.50
2019-05-13T16:08:31.807Z,68.33
2019-05-13T16:11:02.159Z,59.63
2019-05-13T16:13:31.954Z,44.23
2019-05-13T16:16:01.734Z,46.17
2019-05-13T16:18:31.699Z,36.43
2019-05-13T16:21:01.766Z,36.97
2019-05-13T16:23:32.434Z,34.27
2019-05-13T16:26:01.894Z,33.53
2019-05-13T16:28:32.506Z,30.87
2019-05-13T16:31:02.386Z,28.10
2019-05-13T16:33:31.619Z,27.00
2019-05-13T16:36:02.564Z,25.57
2019-05-13T16:38:32.951Z,26.23
2019-05-13T16:41:02.095Z,25.80
2019-05-13T16:43:31.937Z,25.23
2019-05-13T16:46:01.214Z,23.67
2019-05-13T16:48:32.118Z,25.10
2019-05-13T16:51:00.585Z,28.30
2019-05-13T16:53:31.424Z,24.37
2019-05-13T16:56:01.721Z,24.23
2019-05-13T16:58:32.534Z,26.13
2019-05-13T17:01:02.491Z,25.73
2019-05-13T17:03:32.002Z,26.37
2019-05-13T17:06:02.183Z,27.70
2019-05-13T17:08:31.980Z,31.43
2019-05-13T17:11:02.200Z,30.93
2019-05-13T17:13:31.594Z,28.17
2019-05-13T17:16:01.635Z,29.43
2019-05-13T17:18:32.388Z,28.30
2019-05-13T17:21:01.581Z,28.33
2019-05-13T17:23:30.709Z,26.57
2019-05-13T17:25:59.523Z,29.20
2019-05-13T17:28:30.869Z,27.03
2019-05-13T17:30:58.934Z,29.53
2019-05-13T17:33:27.798Z,26.13
2019-05-13T17:35:56.672Z,25.57
2019-05-13T17:38:25.559Z,25.43
2019-05-13T17:40:54.423Z,25.87
2019-05-13T17:43:23.291Z,25.20
2019-05-13T17:45:52.389Z,27.47
2019-05-13T17:48:26.786Z,23.70
2019-05-13T17:50:52.195Z,26.23
2019-05-13T17:53:21.692Z,30.23
2019-05-13T17:55:51.575Z,21.10
2019-05-13T17:58:22.150Z,17.70
2019-05-13T18:01:08.893Z,17.70
2019-05-13T18:03:37.476Z,18.87
2019-05-13T18:06:06.767Z,21.17
2019-05-13T18:08:35.675Z,22.17
2019-05-13T18:11:04.540Z,22.40
2019-05-13T18:13:33.698Z,20.30
2019-05-13T18:16:02.851Z,23.83
2019-05-13T18:18:40.561Z,21.40
2019-05-13T18:21:02.420Z,22.37
2019-05-13T18:23:31.273Z,22.23
2019-05-13T18:26:01.945Z,23.47
2019-05-13T18:28:31.567Z,21.53
2019-05-13T18:31:01.714Z,18.97
2019-05-13T18:33:31.901Z,19.67
2019-05-13T18:36:02.064Z,18.33
2019-05-13T18:38:31.357Z,20.50
2019-05-13T18:41:01.669Z,20.93
2019-05-13T18:43:32.114Z,22.40
2019-05-13T18:46:02.068Z,24.40
2019-05-13T18:48:32.328Z,22.57
2019-05-13T18:51:01.561Z,23.53
2019-05-13T18:53:32.126Z,21.40
2019-05-13T18:56:01.934Z,21.47
2019-05-13T18:58:31.761Z,18.73
2019-05-13T19:01:01.369Z,20.43
2019-05-13T19:03:32.315Z,20.33
2019-05-13T19:06:01.034Z,19.83
2019-05-13T19:08:31.883Z,20.30
2019-05-13T19:11:01.195Z,17.63
2019-05-13T19:13:32.339Z,17.07
2019-05-13T19:16:02.367Z,19.20
2019-05-13T19:18:32.146Z,17.97
2019-05-13T19:21:01.890Z,21.10
2019-05-13T19:23:31.511Z,17.17
2019-05-13T19:26:01.973Z,19.47
2019-05-13T19:28:31.742Z,19.30
2019-05-13T19:31:02.258Z,17.77
2019-05-13T19:33:31.436Z,20.20
2019-05-13T19:36:01.414Z,19.80
2019-05-13T19:38:31.903Z,20.63
2019-05-13T19:41:03.375Z,20.73
2019-05-13T19:43:32.312Z,20.20
2019-05-13T19:46:01.752Z,22.03
2019-05-13T19:48:32.609Z,17.20
2019-05-13T19:51:01.687Z,17.60
2019-05-13T19:53:31.918Z,20.03
2019-05-13T19:56:01.531Z,21.40
2019-05-13T19:58:32.377Z,19.00
2019-05-13T20:01:01.191Z,18.90
2019-05-13T20:03:31.753Z,18.63
2019-05-13T20:06:02.191Z,22.43
2019-05-13T20:08:32.014Z,20.67
2019-05-13T20:11:02.106Z,18.67
2019-05-13T20:13:31.415Z,23.77
2019-05-13T20:16:19.552Z,21.10
2019-05-13T20:18:48.439Z,19.57
2019-05-13T20:21:17.802Z,21.43
2019-05-13T20:23:46.682Z,20.67
2019-05-13T20:26:15.703Z,18.57
2019-05-13T20:28:44.555Z,18.77
2019-05-13T20:31:13.483Z,19.43
2019-05-13T20:33:42.920Z,22.07
2019-05-13T20:36:12.081Z,18.03
2019-05-13T20:38:40.925Z,14.90
2019-05-13T20:41:12.521Z,16.33
2019-05-13T20:43:42.576Z,15.23
2019-05-13T20:46:11.736Z,13.30
2019-05-13T20:48:41.447Z,14.57
2019-05-13T20:51:11.384Z,14.77
2019-05-13T20:53:41.203Z,12.67
2019-05-13T20:56:10.344Z,14.77
2019-05-13T20:58:39.320Z,13.90
2019-05-13T21:01:08.194Z,12.30
2019-05-13T21:03:37.142Z,13.47
2019-05-13T21:06:06.033Z,15.30
2019-05-13T21:08:34.921Z,15.93
2019-05-13T21:11:03.910Z,14.10
2019-05-13T21:13:32.878Z,13.57
2019-05-13T21:16:03.783Z,13.30
2019-05-13T21:18:32.458Z,12.17
2019-05-13T21:21:01.322Z,13.63
2019-05-13T21:23:31.274Z,12.10
2019-05-13T21:26:01.581Z,10.83
2019-05-13T21:28:30.755Z,12.93
2019-05-13T21:31:01.938Z,8.97
2019-05-13T21:33:31.465Z,11.27
2019-05-13T21:36:01.826Z,9.13
2019-05-13T21:38:32.489Z,9.13
2019-05-13T21:41:01.583Z,8.13
2019-05-13T21:43:32.424Z,6.93
2019-05-13T21:46:01.973Z,6.57
2019-05-13T21:48:32.344Z,6.53
2019-05-13T21:51:01.539Z,5.80
2019-05-13T21:53:32.543Z,7.97
2019-05-13T21:56:02.261Z,6.83
2019-05-13T21:58:31.528Z,6.47
2019-05-13T22:01:01.592Z,5.40
2019-05-13T22:03:33.204Z,6.70
2019-05-13T22:06:01.939Z,6.23
2019-05-13T22:08:32.075Z,6.10
2019-05-13T22:11:01.914Z,5.47
2019-05-13T22:13:31.555Z,5.57
2019-05-13T22:16:01.695Z,4.37
2019-05-13T22:18:31.495Z,6.33
2019-05-13T22:21:01.328Z,6.77
2019-05-13T22:23:32.018Z,4.73
2019-05-13T22:26:01.639Z,6.03
2019-05-13T22:28:31.395Z,5.70
2019-05-13T22:31:01.375Z,6.27
2019-05-13T22:33:32.372Z,7.43
2019-05-13T22:36:01.819Z,5.80
2019-05-13T22:38:32.305Z,7.30
2019-05-13T22:41:01.495Z,5.80
2019-05-13T22:43:32.045Z,7.73
2019-05-13T22:46:00.846Z,5.47
2019-05-13T22:48:31.768Z,5.43
2019-05-13T22:51:01.307Z,4.07
2019-05-13T22:53:31.855Z,4.13
2019-05-13T22:56:01.285Z,7.30
2019-05-13T22:58:32.066Z,6.57
2019-05-13T23:01:02.445Z,5.27
2019-05-13T23:03:32.427Z,4.73
2019-05-13T23:06:01.700Z,5.13
2019-05-13T23:08:32.499Z,4.43
2019-05-13T23:11:01.993Z,3.77
2019-05-13T23:13:31.364Z,3.73
2019-05-13T23:16:02.324Z,4.00
2019-05-13T23:18:31.608Z,3.87
2019-05-13T23:21:02.283Z,3.50
2019-05-13T23:23:31.495Z,2.70
2019-05-13T23:26:00.394Z,3.30
2019-05-13T23:28:29.260Z,2.53
2019-05-13T23:30:58.118Z,3.27
2019-05-13T23:33:27.039Z,2.47
2019-05-13T23:35:55.899Z,4.13
2019-05-13T23:38:24.763Z,2.93
2019-05-13T23:40:53.674Z,3.60
2019-05-13T23:43:22.535Z,3.03
2019-05-13T23:45:51.434Z,3.87
2019-05-13T23:48:21.650Z,3.60
2019-05-13T23:50:52.158Z,2.80
2019-05-13T23:53:21.916Z,4.00
2019-05-13T23:55:52.214Z,5.53
2019-05-13T23:58:21.659Z,3.23
